Aurora, New Mexico
Current Conditions -  °F | °C
As of 2:53 AM on Tuesday 21 Oct 2014 (Local Time) from KLVS Reporting Station
Broken Clouds Broken Clouds  
Wind Chill:   Ceiling: 6000
Heat Index:   Visibility: 10mi
Dew Point:   Wind: 5mph
Humidity: 89%   Direction: 30°NNE
Pressure: 30.22"   Gusts: NA
Location:  36.0243°N, 105.005°W
Report Text: KLVS 210853Z AUTO 03004KT 10SM SCT046 BKN060 07/05 A3022 RMK AO2 SLP160 T00670050 58008
Loading
Personal Weather Stations






























Interactive Weather Map
Tropical Storm Tracking
New forecast layout! Learn more

10-Day Weather Forecast

Advertisements
Track Severe Weather on mobile